HAZ3651 ZGGG-ZUCK
Flight info
| Callsign | HAZ3651 |
|---|---|
| Flight time | N/A |
| Altitude | 34100 |
| Route | AGVIL9 AGVIL W24 OSNOV G586 QP B330 ELKAL W179 SUMUN W3 ASIPO W678 SEGDA SEGDA1J |
| Aircraft | B77W/H-SDE1E2E3FGHIJ2J3J4J5M1RWXY/LB1D1 |
Departure
| Time | N/A |
|---|---|
| Airport | Guangzhou Baiyun International Airport (ZGGG) |
Arrival
| Time | 2026-04-21 02:29 |
|---|---|
| Airport | Chongqing Jiangbei International Airport (ZUCK) |
| Time | Latitude | Longitude | Altitude | Speed | Heading |
|---|---|---|---|---|---|
| 2026-04-21 02:00 | 28.10188 | 106.75049 | 34052 ft | 456 kts | 352° |
| 2026-04-21 02:00 | 28.12347 | 106.75050 | 34057 ft | 457 kts | 352° |
| 2026-04-21 02:01 | 28.16935 | 106.75054 | 34066 ft | 455 kts | 353° |
| 2026-04-21 02:01 | 28.25221 | 106.75068 | 34075 ft | 455 kts | 353° |
| 2026-04-21 02:02 | 28.31556 | 106.75053 | 34062 ft | 452 kts | 349° |
| 2026-04-21 02:02 | 28.37733 | 106.74252 | 33799 ft | 445 kts | 345° |
| 2026-04-21 02:02 | 28.40815 | 106.73792 | 33405 ft | 448 kts | 346° |
| 2026-04-21 02:03 | 28.43903 | 106.73330 | 32904 ft | 454 kts | 346° |
| 2026-04-21 02:03 | 28.47048 | 106.72862 | 32520 ft | 458 kts | 346° |
| 2026-04-21 02:03 | 28.50203 | 106.72394 | 32270 ft | 459 kts | 346° |
| 2026-04-21 02:03 | 28.53395 | 106.71922 | 32056 ft | 458 kts | 347° |
| 2026-04-21 02:04 | 28.56574 | 106.71451 | 31825 ft | 459 kts | 347° |
| 2026-04-21 02:04 | 28.59760 | 106.70978 | 31515 ft | 461 kts | 347° |
| 2026-04-21 02:04 | 28.63016 | 106.70494 | 31171 ft | 465 kts | 347° |
| 2026-04-21 02:04 | 28.66222 | 106.70018 | 30861 ft | 467 kts | 347° |
| 2026-04-21 02:05 | 28.69499 | 106.69532 | 30649 ft | 468 kts | 348° |
| 2026-04-21 02:05 | 28.76021 | 106.69198 | 30501 ft | 468 kts | 355° |
| 2026-04-21 02:05 | 28.79249 | 106.69197 | 30347 ft | 468 kts | 355° |
| 2026-04-21 02:06 | 28.82497 | 106.69196 | 30097 ft | 470 kts | 355° |
| 2026-04-21 02:06 | 28.85790 | 106.69195 | 29937 ft | 469 kts | 355° |
| 2026-04-21 02:06 | 28.89076 | 106.69192 | 29852 ft | 468 kts | 355° |
| 2026-04-21 02:06 | 28.92333 | 106.69190 | 29743 ft | 467 kts | 355° |
| 2026-04-21 02:07 | 28.95594 | 106.69187 | 29605 ft | 467 kts | 355° |
| 2026-04-21 02:07 | 28.98853 | 106.69224 | 29418 ft | 470 kts | 359° |
| 2026-04-21 02:07 | 29.02105 | 106.69720 | 29249 ft | 476 kts | 7° |
| 2026-04-21 02:08 | 29.08519 | 106.71378 | 28716 ft | 465 kts | 9° |
| 2026-04-21 02:08 | 29.10081 | 106.71790 | 28430 ft | 463 kts | 9° |
| 2026-04-21 02:08 | 29.11152 | 106.72073 | 28230 ft | 462 kts | 9° |
| 2026-04-21 02:08 | 29.13893 | 106.72795 | 27728 ft | 460 kts | 9° |
| 2026-04-21 02:09 | 29.16356 | 106.73444 | 27281 ft | 457 kts | 9° |
| 2026-04-21 02:09 | 29.22649 | 106.75101 | 26125 ft | 450 kts | 9° |
| 2026-04-21 02:09 | 29.25869 | 106.75778 | 25536 ft | 442 kts | 1° |
| 2026-04-21 02:10 | 29.28927 | 106.75999 | 24976 ft | 436 kts | 359° |
| 2026-04-21 02:10 | 29.31969 | 106.76157 | 24405 ft | 433 kts | 359° |
| 2026-04-21 02:10 | 29.34971 | 106.76311 | 23837 ft | 430 kts | 359° |
| 2026-04-21 02:10 | 29.37931 | 106.76463 | 23294 ft | 427 kts | 359° |
| 2026-04-21 02:11 | 29.40884 | 106.76614 | 22737 ft | 424 kts | 359° |
| 2026-04-21 02:11 | 29.43831 | 106.76766 | 22171 ft | 421 kts | 359° |
| 2026-04-21 02:11 | 29.46743 | 106.76917 | 21615 ft | 419 kts | 359° |
| 2026-04-21 02:11 | 29.49667 | 106.77069 | 21049 ft | 417 kts | 359° |
| 2026-04-21 02:12 | 29.52567 | 106.77219 | 20477 ft | 415 kts | 359° |
| 2026-04-21 02:12 | 29.55410 | 106.77367 | 19918 ft | 413 kts | 359° |
| 2026-04-21 02:12 | 29.58288 | 106.77518 | 19333 ft | 411 kts | 359° |
| 2026-04-21 02:12 | 29.61132 | 106.77666 | 18772 ft | 410 kts | 359° |
| 2026-04-21 02:13 | 29.63972 | 106.77814 | 18198 ft | 408 kts | 359° |
| 2026-04-21 02:13 | 29.66813 | 106.77962 | 17615 ft | 406 kts | 359° |
| 2026-04-21 02:13 | 29.69609 | 106.78116 | 17048 ft | 405 kts | 1° |
| 2026-04-21 02:13 | 29.72422 | 106.78640 | 16470 ft | 407 kts | 12° |
| 2026-04-21 02:14 | 29.75119 | 106.79533 | 15897 ft | 406 kts | 14° |
| 2026-04-21 02:14 | 29.77832 | 106.80476 | 15297 ft | 406 kts | 14° |
| 2026-04-21 02:14 | 29.80535 | 106.81419 | 14711 ft | 404 kts | 14° |
| 2026-04-21 02:14 | 29.83243 | 106.82362 | 14111 ft | 403 kts | 14° |
| 2026-04-21 02:15 | 29.85902 | 106.83289 | 13568 ft | 401 kts | 15° |
| 2026-04-21 02:15 | 29.88559 | 106.84215 | 13032 ft | 398 kts | 15° |
| 2026-04-21 02:15 | 29.91234 | 106.85148 | 12441 ft | 397 kts | 15° |
| 2026-04-21 02:15 | 29.93862 | 106.86065 | 11936 ft | 393 kts | 15° |
| 2026-04-21 02:16 | 29.96440 | 106.86966 | 11807 ft | 378 kts | 15° |
| 2026-04-21 02:16 | 29.98908 | 106.87830 | 11660 ft | 361 kts | 15° |
| 2026-04-21 02:16 | 30.01252 | 106.88650 | 11572 ft | 345 kts | 15° |
| 2026-04-21 02:16 | 30.03532 | 106.89448 | 11421 ft | 332 kts | 15° |
| 2026-04-21 02:17 | 30.05719 | 106.90214 | 11275 ft | 319 kts | 15° |
| 2026-04-21 02:17 | 30.07804 | 106.90943 | 11145 ft | 307 kts | 15° |
| 2026-04-21 02:17 | 30.09805 | 106.91611 | 11029 ft | 294 kts | 8° |
| 2026-04-21 02:17 | 30.10086 | 106.91669 | 11005 ft | 292 kts | 4° |
| 2026-04-21 02:18 | 30.11137 | 106.91706 | 10931 ft | 283 kts | 349° |
| 2026-04-21 02:18 | 30.12363 | 106.91367 | 10855 ft | 270 kts | 333° |
| 2026-04-21 02:18 | 30.15138 | 106.88868 | 10384 ft | 261 kts | 296° |
| 2026-04-21 02:19 | 30.16220 | 106.86039 | 9811 ft | 255 kts | 278° |
| 2026-04-21 02:19 | 30.16211 | 106.84044 | 9444 ft | 242 kts | 253° |
| 2026-04-21 02:19 | 30.15417 | 106.82414 | 9156 ft | 228 kts | 221° |
| 2026-04-21 02:19 | 30.14066 | 106.81535 | 8919 ft | 219 kts | 201° |
| 2026-04-21 02:20 | 30.12648 | 106.80962 | 8644 ft | 213 kts | 199° |
| 2026-04-21 02:20 | 30.11252 | 106.80434 | 8361 ft | 207 kts | 199° |
| 2026-04-21 02:20 | 30.09899 | 106.79939 | 8207 ft | 195 kts | 198° |
| 2026-04-21 02:20 | 30.08620 | 106.79481 | 8160 ft | 194 kts | 198° |
| 2026-04-21 02:21 | 30.07308 | 106.79022 | 7887 ft | 197 kts | 198° |
| 2026-04-21 02:21 | 30.06004 | 106.78570 | 7568 ft | 194 kts | 197° |
| 2026-04-21 02:21 | 30.04700 | 106.78124 | 7280 ft | 192 kts | 197° |
| 2026-04-21 02:21 | 30.03421 | 106.77685 | 7058 ft | 193 kts | 197° |
| 2026-04-21 02:22 | 30.02135 | 106.77242 | 6829 ft | 193 kts | 197° |
| 2026-04-21 02:22 | 30.00859 | 106.76801 | 6575 ft | 191 kts | 197° |
| 2026-04-21 02:22 | 29.99565 | 106.76350 | 6354 ft | 192 kts | 197° |
| 2026-04-21 02:22 | 29.98293 | 106.75903 | 6104 ft | 191 kts | 197° |
| 2026-04-21 02:23 | 29.97004 | 106.75453 | 5863 ft | 191 kts | 196° |
| 2026-04-21 02:23 | 29.95716 | 106.75004 | 5602 ft | 192 kts | 196° |
| 2026-04-21 02:23 | 29.94440 | 106.74558 | 5355 ft | 191 kts | 196° |
| 2026-04-21 02:23 | 29.93170 | 106.74116 | 5127 ft | 191 kts | 196° |
| 2026-04-21 02:24 | 29.91884 | 106.73667 | 4883 ft | 191 kts | 195° |
| 2026-04-21 02:24 | 29.90613 | 106.73225 | 4639 ft | 192 kts | 196° |
| 2026-04-21 02:24 | 29.89974 | 106.73002 | 4522 ft | 192 kts | 196° |
| 2026-04-21 02:24 | 29.89669 | 106.72897 | 4460 ft | 192 kts | 196° |
| 2026-04-21 02:25 | 29.88003 | 106.72323 | 4126 ft | 192 kts | 195° |
| 2026-04-21 02:25 | 29.86842 | 106.71919 | 3894 ft | 191 kts | 196° |
| 2026-04-21 02:25 | 29.84912 | 106.71246 | 3495 ft | 182 kts | 196° |
| 2026-04-21 02:26 | 29.83587 | 106.70782 | 3221 ft | 175 kts | 196° |
| 2026-04-21 02:26 | 29.82448 | 106.70387 | 2993 ft | 162 kts | 196° |
| 2026-04-21 02:26 | 29.81384 | 106.70018 | 2774 ft | 158 kts | 197° |
| 2026-04-21 02:26 | 29.80338 | 106.69653 | 2555 ft | 156 kts | 197° |
| 2026-04-21 02:27 | 29.79297 | 106.69290 | 2337 ft | 156 kts | 198° |
| 2026-04-21 02:27 | 29.78255 | 106.68928 | 2115 ft | 155 kts | 198° |
| 2026-04-21 02:27 | 29.77230 | 106.68571 | 1903 ft | 154 kts | 198° |
| 2026-04-21 02:27 | 29.76182 | 106.68213 | 1674 ft | 155 kts | 199° |
| 2026-04-21 02:28 | 29.75168 | 106.67852 | 1469 ft | 154 kts | 199° |
| 2026-04-21 02:28 | 29.74167 | 106.67502 | 1385 ft | 139 kts | 197° |
| 2026-04-21 02:28 | 29.73379 | 106.67233 | 1384 ft | 93 kts | 197° |
| 2026-04-21 02:28 | 29.72876 | 106.67059 | 1384 ft | 56 kts | 198° |
| 2026-04-21 02:29 | 29.72625 | 106.66874 | 1384 ft | 23 kts | 226° |
| 2026-04-21 02:29 | 29.72515 | 106.66748 | 1384 ft | 21 kts | 218° |
| 2026-04-21 02:29 | 29.72387 | 106.66683 | 1384 ft | 19 kts | 197° |
| 2026-04-21 02:29 | 29.72282 | 106.66624 | 1384 ft | 15 kts | 257° |
| 2026-04-21 02:30 | 29.72302 | 106.66507 | 1384 ft | 14 kts | 286° |
| 2026-04-21 02:30 | 29.72331 | 106.66402 | 1384 ft | 13 kts | 287° |
| 2026-04-21 02:30 | 29.72357 | 106.66305 | 1384 ft | 12 kts | 287° |
| 2026-04-21 02:30 | 29.72381 | 106.66213 | 1384 ft | 11 kts | 286° |
| 2026-04-21 02:31 | 29.72334 | 106.66150 | 1384 ft | 14 kts | 201° |
| 2026-04-21 02:31 | 29.72234 | 106.66114 | 1384 ft | 15 kts | 197° |
| 2026-04-21 02:31 | 29.72136 | 106.66080 | 1384 ft | 14 kts | 196° |
| 2026-04-21 02:31 | 29.72042 | 106.66048 | 1384 ft | 14 kts | 197° |
| 2026-04-21 02:32 | 29.71937 | 106.66008 | 1384 ft | 16 kts | 214° |
| 2026-04-21 02:32 | 29.71933 | 106.65882 | 1384 ft | 17 kts | 286° |
| 2026-04-21 02:32 | 29.71971 | 106.65738 | 1384 ft | 19 kts | 287° |
| 2026-04-21 02:32 | 29.72012 | 106.65581 | 1384 ft | 21 kts | 287° |
| 2026-04-21 02:33 | 29.72056 | 106.65414 | 1384 ft | 22 kts | 286° |
| 2026-04-21 02:33 | 29.72103 | 106.65237 | 1384 ft | 23 kts | 287° |
| 2026-04-21 02:33 | 29.72147 | 106.65054 | 1384 ft | 16 kts | 270° |
| 2026-04-21 02:33 | 29.72059 | 106.64995 | 1384 ft | 16 kts | 197° |
| 2026-04-21 02:34 | 29.71938 | 106.64953 | 1384 ft | 19 kts | 197° |
| 2026-04-21 02:34 | 29.71804 | 106.64906 | 1384 ft | 21 kts | 197° |
| 2026-04-21 02:34 | 29.71664 | 106.64870 | 1384 ft | 13 kts | 179° |
| 2026-04-21 02:34 | 29.71642 | 106.64906 | 1384 ft | 7 kts | 96° |
| 2026-04-21 02:35 | 29.71640 | 106.64954 | 1384 ft | 2 kts | 92° |
| 2026-04-21 02:35 | 29.71639 | 106.64958 | 1384 ft | 0 kts | 92° |